createdAt,value
2022-10-06T00:01:17.575Z,1.37
2022-10-06T00:03:45.495Z,2.60
2022-10-06T00:06:14.399Z,1.90
2022-10-06T00:08:42.573Z,1.40
2022-10-06T00:11:11.503Z,1.17
2022-10-06T00:13:41.157Z,2.23
2022-10-06T00:16:17.548Z,3.33
2022-10-06T00:18:46.505Z,4.00
2022-10-06T00:21:13.558Z,2.10
2022-10-06T00:23:40.640Z,7.50
2022-10-06T00:26:11.534Z,2.03
2022-10-06T00:28:40.950Z,4.50
2022-10-06T00:31:07.994Z,1.23
2022-10-06T00:33:37.859Z,1.80
2022-10-06T00:36:04.766Z,3.90
2022-10-06T00:38:31.639Z,3.07
2022-10-06T00:40:58.618Z,1.60
2022-10-06T00:43:54.081Z,2.40
2022-10-06T00:46:24.317Z,2.10
2022-10-06T00:48:56.564Z,1.53
2022-10-06T00:51:23.907Z,3.43
2022-10-06T00:53:50.998Z,2.97
2022-10-06T00:56:17.741Z,4.33
2022-10-06T00:58:44.484Z,3.97
2022-10-06T01:01:13.271Z,3.20
2022-10-06T01:03:46.701Z,1.77
2022-10-06T01:06:13.510Z,1.70
2022-10-06T01:08:40.354Z,3.17
2022-10-06T01:11:13.329Z,4.40
2022-10-06T01:13:43.509Z,4.73
2022-10-06T01:16:12.301Z,4.13
2022-10-06T01:18:42.882Z,4.70
2022-10-06T01:21:27.927Z,2.77
2022-10-06T01:23:57.193Z,2.63
2022-10-06T01:26:25.324Z,2.63
2022-10-06T01:28:52.634Z,3.67
2022-10-06T01:31:20.184Z,3.13
2022-10-06T01:33:51.678Z,6.93
2022-10-06T01:36:18.340Z,4.10
2022-10-06T01:38:44.939Z,3.67
2022-10-06T01:41:11.584Z,3.43
2022-10-06T01:43:38.271Z,2.67
2022-10-06T01:46:05.267Z,4.03
2022-10-06T01:48:32.193Z,7.13
2022-10-06T01:50:59.158Z,2.97
2022-10-06T01:53:25.794Z,4.00
2022-10-06T01:55:57.238Z,2.77
2022-10-06T01:58:24.314Z,6.17
2022-10-06T02:00:51.188Z,6.43
2022-10-06T02:03:17.773Z,6.20
2022-10-06T02:05:44.375Z,3.00
2022-10-06T02:08:11.002Z,4.03
2022-10-06T02:10:37.637Z,5.67
2022-10-06T02:13:04.889Z,5.63
2022-10-06T02:15:33.435Z,4.13
2022-10-06T02:18:00.098Z,4.77
2022-10-06T02:20:26.752Z,3.27
2022-10-06T02:22:53.362Z,3.60
2022-10-06T02:25:20.068Z,5.10
2022-10-06T02:27:46.674Z,6.63
2022-10-06T02:30:16.639Z,4.50
2022-10-06T02:32:44.301Z,3.37
2022-10-06T02:35:12.900Z,4.07
2022-10-06T02:37:41.587Z,9.23
2022-10-06T02:40:09.942Z,6.53
2022-10-06T02:42:37.656Z,7.73
2022-10-06T02:45:06.996Z,3.67
2022-10-06T02:47:35.452Z,5.83
2022-10-06T02:50:05.410Z,4.40
2022-10-06T02:52:37.051Z,1.90
2022-10-06T02:55:05.747Z,6.03
2022-10-06T02:57:32.421Z,4.37
2022-10-06T02:59:59.088Z,5.23
2022-10-06T03:02:25.885Z,4.00
2022-10-06T03:04:52.573Z,7.23
2022-10-06T03:07:19.454Z,4.37
2022-10-06T03:09:46.034Z,3.80
2022-10-06T03:12:12.846Z,3.07
2022-10-06T03:14:39.514Z,6.37
2022-10-06T03:17:09.557Z,6.20
2022-10-06T03:19:37.462Z,6.13
2022-10-06T03:22:05.267Z,7.07
2022-10-06T03:24:32.442Z,4.47
2022-10-06T03:26:59.051Z,5.73
2022-10-06T03:29:25.665Z,2.67
2022-10-06T03:31:52.354Z,8.70
2022-10-06T03:34:19.014Z,7.37
2022-10-06T03:36:45.625Z,4.80
2022-10-06T03:39:12.283Z,3.60
2022-10-06T03:41:39.081Z,3.20
2022-10-06T03:44:06.182Z,4.50
2022-10-06T03:46:35.914Z,2.57
2022-10-06T03:49:03.739Z,6.83
2022-10-06T03:51:31.162Z,3.73
2022-10-06T03:53:58.476Z,3.47
2022-10-06T03:56:30.643Z,4.33
2022-10-06T03:59:02.426Z,3.30
2022-10-06T04:01:32.261Z,8.07
2022-10-06T04:04:00.771Z,4.07
2022-10-06T04:06:29.573Z,5.90
2022-10-06T04:08:57.013Z,6.57
2022-10-06T04:11:26.502Z,6.17
2022-10-06T04:14:00.011Z,6.37
2022-10-06T04:16:28.158Z,4.50
2022-10-06T04:18:57.308Z,4.97
2022-10-06T04:21:25.591Z,5.07
2022-10-06T04:23:53.812Z,4.40
2022-10-06T04:26:22.352Z,2.87
2022-10-06T04:28:49.461Z,2.60
2022-10-06T04:31:16.165Z,6.80
2022-10-06T04:33:45.826Z,2.90
2022-10-06T04:36:26.056Z,3.00
2022-10-06T04:38:58.678Z,1.40
2022-10-06T04:41:28.396Z,1.63
2022-10-06T04:43:56.504Z,1.37
2022-10-06T04:46:42.086Z,1.97
2022-10-06T04:49:13.314Z,0.70
2022-10-06T04:51:47.341Z,1.17
2022-10-06T04:54:14.419Z,2.57
2022-10-06T04:56:41.034Z,1.43
2022-10-06T04:59:07.687Z,0.80
2022-10-06T05:01:36.594Z,0.47
2022-10-06T05:04:04.887Z,2.93
2022-10-06T05:06:34.271Z,0.90
2022-10-06T05:09:04.179Z,1.30
2022-10-06T05:11:31.881Z,0.90
2022-10-06T05:14:03.147Z,3.23
2022-10-06T05:16:31.345Z,2.77
2022-10-06T05:18:58.943Z,2.20
2022-10-06T05:21:29.067Z,3.57
2022-10-06T05:23:56.282Z,3.00
2022-10-06T05:26:26.731Z,0.50
2022-10-06T05:28:53.846Z,2.43
2022-10-06T05:31:27.253Z,0.57
2022-10-06T05:33:55.328Z,1.13
2022-10-06T05:36:25.502Z,4.50
2022-10-06T05:38:52.773Z,2.43
2022-10-06T05:41:30.448Z,3.30
2022-10-06T05:44:01.393Z,7.77
2022-10-06T05:46:33.246Z,0.90
2022-10-06T05:49:05.120Z,1.53
2022-10-06T05:51:34.285Z,4.20
2022-10-06T05:54:01.862Z,1.23
2022-10-06T05:56:37.157Z,1.30
2022-10-06T05:59:07.061Z,1.37
2022-10-06T06:01:40.031Z,1.53
2022-10-06T06:04:09.557Z,0.53
2022-10-06T06:06:45.474Z,2.60
2022-10-06T06:09:21.217Z,1.83
2022-10-06T06:11:53.183Z,0.40
2022-10-06T06:14:45.623Z,3.47
2022-10-06T06:17:12.258Z,0.63
2022-10-06T06:19:38.873Z,3.23
2022-10-06T06:22:05.574Z,1.57
2022-10-06T06:24:32.241Z,2.83
2022-10-06T06:26:58.883Z,3.20
2022-10-06T06:29:27.862Z,3.17
2022-10-06T06:31:54.518Z,2.77
2022-10-06T06:34:21.216Z,2.60
2022-10-06T06:36:53.662Z,0.70
2022-10-06T06:39:21.392Z,4.20
2022-10-06T06:41:48.934Z,3.17
2022-10-06T06:44:15.903Z,3.67
2022-10-06T06:46:44.950Z,3.90
2022-10-06T06:49:14.523Z,2.17
2022-10-06T06:51:44.043Z,3.90
2022-10-06T06:54:13.035Z,3.33
2022-10-06T06:56:39.774Z,3.63
2022-10-06T06:59:16.201Z,2.20
2022-10-06T07:01:45.870Z,3.87
2022-10-06T07:04:16.950Z,3.07
2022-10-06T07:06:57.152Z,3.07
2022-10-06T07:09:28.859Z,2.60
2022-10-06T07:11:57.601Z,1.50
2022-10-06T07:14:24.803Z,1.73
2022-10-06T07:17:12.423Z,5.33
2022-10-06T07:19:51.222Z,2.73
2022-10-06T07:22:42.644Z,2.33
2022-10-06T07:25:26.554Z,6.20
2022-10-06T07:27:54.134Z,1.70
2022-10-06T07:30:28.979Z,1.73
2022-10-06T07:32:58.479Z,8.60
2022-10-06T07:35:27.971Z,5.13
2022-10-06T07:37:54.629Z,6.17
2022-10-06T07:40:21.258Z,2.87
2022-10-06T07:42:53.810Z,3.83
2022-10-06T07:45:38.995Z,1.80
2022-10-06T07:48:27.187Z,4.27
2022-10-06T07:50:54.023Z,4.73
2022-10-06T07:53:20.640Z,3.63
2022-10-06T07:55:50.629Z,2.83
2022-10-06T07:58:19.848Z,5.53
2022-10-06T08:00:48.769Z,5.70
2022-10-06T08:03:18.374Z,5.60
2022-10-06T08:05:54.263Z,4.43
2022-10-06T08:08:24.225Z,3.70
2022-10-06T08:11:10.209Z,2.03
2022-10-06T08:13:42.295Z,3.00
2022-10-06T08:16:15.077Z,4.20
2022-10-06T08:18:46.369Z,3.07
2022-10-06T08:21:19.102Z,2.57
2022-10-06T08:23:48.375Z,6.50
2022-10-06T08:26:17.224Z,1.57
2022-10-06T08:28:46.516Z,4.63
2022-10-06T08:31:15.732Z,4.47
2022-10-06T08:33:43.899Z,2.47
2022-10-06T08:36:14.399Z,4.83
2022-10-06T08:38:42.544Z,4.33
2022-10-06T08:41:33.671Z,4.77
2022-10-06T08:44:05.178Z,5.33
2022-10-06T08:46:39.655Z,5.13
2022-10-06T08:49:11.913Z,4.43
2022-10-06T08:52:05.601Z,6.27
2022-10-06T08:55:02.565Z,7.10
2022-10-06T08:57:52.259Z,4.53
2022-10-06T09:00:21.405Z,3.13
2022-10-06T09:02:50.189Z,3.80
2022-10-06T09:05:29.636Z,7.63
2022-10-06T09:08:35.507Z,1.80
2022-10-06T09:11:23.959Z,3.77
2022-10-06T09:14:00.290Z,5.80
2022-10-06T09:16:33.737Z,5.07
2022-10-06T09:19:09.284Z,5.13
2022-10-06T09:21:50.739Z,6.33
2022-10-06T09:24:24.020Z,6.17
2022-10-06T09:26:53.580Z,2.77
2022-10-06T09:29:20.206Z,3.83
2022-10-06T09:31:52.859Z,7.60
2022-10-06T09:34:53.067Z,10.97
2022-10-06T09:37:20.981Z,5.63
2022-10-06T09:39:54.776Z,3.63
2022-10-06T09:42:28.387Z,2.37
2022-10-06T09:45:24.969Z,5.90
2022-10-06T09:47:51.663Z,5.37
2022-10-06T09:50:27.681Z,6.40
2022-10-06T09:53:06.375Z,3.33
2022-10-06T09:55:44.693Z,2.47
2022-10-06T09:58:22.244Z,5.07
2022-10-06T10:00:54.522Z,5.63
2022-10-06T10:03:23.081Z,1.83
2022-10-06T10:05:52.234Z,7.87
2022-10-06T10:08:19.011Z,5.67
2022-10-06T10:10:49.279Z,4.57
2022-10-06T10:13:22.017Z,5.70
2022-10-06T10:15:59.201Z,5.87
2022-10-06T10:18:31.633Z,4.97
2022-10-06T10:21:08.434Z,6.03
2022-10-06T10:23:43.302Z,6.77
2022-10-06T10:26:45.307Z,2.37
2022-10-06T10:29:43.605Z,4.33
2022-10-06T10:32:12.844Z,1.57
2022-10-06T10:34:48.871Z,3.03
2022-10-06T10:37:24.901Z,4.40
2022-10-06T10:39:56.619Z,3.50
2022-10-06T10:42:45.548Z,2.03
2022-10-06T10:45:50.163Z,1.40
2022-10-06T10:48:27.738Z,2.60
2022-10-06T10:51:07.022Z,4.00
2022-10-06T10:53:54.435Z,3.60
2022-10-06T10:56:24.285Z,2.00
2022-10-06T10:58:55.881Z,8.13
2022-10-06T11:01:37.752Z,1.67
2022-10-06T11:04:10.228Z,1.50
2022-10-06T11:07:04.180Z,2.93
2022-10-06T11:09:39.534Z,2.30
2022-10-06T11:12:51.363Z,3.30
2022-10-06T11:15:30.521Z,1.30
2022-10-06T11:18:06.975Z,7.63
2022-10-06T11:20:44.200Z,4.83
2022-10-06T11:23:40.670Z,8.20
2022-10-06T11:26:25.263Z,1.63
2022-10-06T11:28:57.787Z,0.93
2022-10-06T11:31:30.487Z,1.10
2022-10-06T11:34:03.348Z,1.67
2022-10-06T11:36:49.474Z,3.70
2022-10-06T11:39:46.795Z,3.23
2022-10-06T11:45:16.426Z,3.03
2022-10-06T11:48:15.474Z,1.93
2022-10-06T11:50:42.990Z,1.80
2022-10-06T11:53:28.506Z,2.30
2022-10-06T11:56:17.184Z,2.97
2022-10-06T11:58:56.065Z,2.53
2022-10-06T12:01:34.934Z,2.93
2022-10-06T12:04:07.824Z,3.70
2022-10-06T12:06:46.106Z,2.23
2022-10-06T12:09:38.700Z,7.27
2022-10-06T12:12:18.892Z,5.00
2022-10-06T12:17:55.322Z,3.60
2022-10-06T12:20:55.590Z,5.50
2022-10-06T12:23:41.457Z,2.77
2022-10-06T12:26:28.282Z,3.80
2022-10-06T12:29:20.695Z,2.10
2022-10-06T12:32:13.112Z,2.43
2022-10-06T12:34:39.675Z,5.10
2022-10-06T12:37:44.182Z,3.77
2022-10-06T12:40:42.285Z,3.30
2022-10-06T12:43:14.942Z,13.37
2022-10-06T12:45:46.398Z,3.53
2022-10-06T12:48:27.601Z,5.03
2022-10-06T12:51:03.006Z,2.33
2022-10-06T12:54:10.823Z,2.87
2022-10-06T12:56:42.429Z,5.67
2022-10-06T12:59:35.176Z,7.13
2022-10-06T13:02:07.925Z,8.87
2022-10-06T13:04:40.612Z,4.67
2022-10-06T13:07:16.702Z,4.70
2022-10-06T13:09:46.040Z,6.97
2022-10-06T13:12:25.627Z,7.83
2022-10-06T13:15:10.650Z,6.67
2022-10-06T13:18:15.679Z,10.47
2022-10-06T13:20:50.507Z,5.67
2022-10-06T13:23:29.379Z,9.23
2022-10-06T13:26:06.101Z,7.93
2022-10-06T13:28:35.709Z,7.27
2022-10-06T13:31:17.624Z,5.53
2022-10-06T13:33:46.310Z,5.20
2022-10-06T13:36:13.624Z,3.13
2022-10-06T13:38:41.788Z,3.33
2022-10-06T13:41:11.184Z,7.30
2022-10-06T13:43:41.530Z,8.63
2022-10-06T13:46:23.328Z,13.13
2022-10-06T13:49:03.603Z,4.30
2022-10-06T13:51:32.628Z,6.40
2022-10-06T13:54:04.126Z,6.57
2022-10-06T13:56:39.331Z,3.20
2022-10-06T13:59:32.532Z,12.23
2022-10-06T14:02:15.039Z,5.63
2022-10-06T14:04:41.729Z,5.67
2022-10-06T14:07:11.968Z,4.53
2022-10-06T14:09:38.810Z,3.17
2022-10-06T14:12:18.194Z,4.47
2022-10-06T14:14:52.570Z,4.33
2022-10-06T14:17:28.892Z,9.80
2022-10-06T14:19:55.714Z,4.40
2022-10-06T14:22:39.273Z,7.17
2022-10-06T14:25:12.342Z,7.47
2022-10-06T14:27:38.938Z,6.83
2022-10-06T14:30:06.237Z,5.97
2022-10-06T14:32:32.855Z,17.93
2022-10-06T14:34:59.716Z,4.50
2022-10-06T14:37:26.328Z,5.83
2022-10-06T14:39:54.762Z,8.77
2022-10-06T14:42:24.466Z,6.07
2022-10-06T14:44:51.136Z,7.00
2022-10-06T14:47:17.747Z,6.50
2022-10-06T14:49:45.288Z,4.93
2022-10-06T14:52:12.166Z,3.60
2022-10-06T14:54:39.095Z,9.33
2022-10-06T14:57:05.922Z,5.37
2022-10-06T14:59:32.711Z,3.73
2022-10-06T15:02:01.919Z,7.53
2022-10-06T15:04:28.622Z,5.67
2022-10-06T15:07:13.846Z,3.40
2022-10-06T15:09:40.429Z,5.17
2022-10-06T15:12:07.090Z,7.37
2022-10-06T15:14:39.389Z,3.13
2022-10-06T15:17:06.144Z,8.17
2022-10-06T15:19:34.165Z,4.67
2022-10-06T15:22:01.232Z,1.87
2022-10-06T15:24:30.742Z,4.73
2022-10-06T15:27:15.932Z,2.63
2022-10-06T15:29:42.582Z,7.13
2022-10-06T15:32:09.583Z,3.10
2022-10-06T15:34:37.961Z,6.53
2022-10-06T15:37:05.208Z,6.77
2022-10-06T15:42:50.132Z,6.20
2022-10-06T15:45:17.511Z,7.43
2022-10-06T15:47:46.414Z,7.87
2022-10-06T15:50:17.832Z,8.73
2022-10-06T15:52:45.470Z,4.50
2022-10-06T15:55:14.328Z,6.73
2022-10-06T15:57:40.930Z,7.47
2022-10-06T16:00:09.092Z,3.53
2022-10-06T16:02:37.464Z,8.23
2022-10-06T16:05:04.289Z,5.00
2022-10-06T16:07:36.183Z,7.10
2022-10-06T16:10:03.489Z,12.13
2022-10-06T16:12:31.837Z,9.07
2022-10-06T16:14:58.426Z,9.43
2022-10-06T16:17:31.232Z,10.37
2022-10-06T16:19:57.901Z,11.00
2022-10-06T16:22:24.601Z,9.97
2022-10-06T16:24:51.263Z,9.37
2022-10-06T16:27:18.334Z,13.20
2022-10-06T16:29:46.098Z,9.07
2022-10-06T16:32:12.682Z,7.07
2022-10-06T16:34:42.136Z,6.50
2022-10-06T16:37:08.799Z,5.73
2022-10-06T16:39:35.570Z,11.17
2022-10-06T16:42:04.293Z,7.13
2022-10-06T16:44:30.970Z,10.70
2022-10-06T16:46:57.606Z,6.70
2022-10-06T16:49:24.670Z,9.57
2022-10-06T16:51:51.399Z,5.47
2022-10-06T16:54:20.941Z,14.57
2022-10-06T16:56:52.145Z,9.43
2022-10-06T16:59:25.933Z,11.63
2022-10-06T17:01:53.378Z,12.00
2022-10-06T17:04:28.876Z,10.47
2022-10-06T17:06:56.974Z,8.90
2022-10-06T17:09:26.051Z,3.57
2022-10-06T17:11:55.730Z,7.33
2022-10-06T17:14:23.064Z,8.50
2022-10-06T17:16:51.715Z,4.70
2022-10-06T17:19:21.307Z,8.20
2022-10-06T17:21:50.700Z,7.43
2022-10-06T17:24:22.808Z,6.27
2022-10-06T17:26:49.935Z,10.17
2022-10-06T17:29:21.283Z,7.27
2022-10-06T17:31:50.476Z,8.87
2022-10-06T17:34:21.537Z,11.43
2022-10-06T17:36:51.326Z,5.47
2022-10-06T17:39:20.541Z,8.57
2022-10-06T17:41:48.959Z,10.47
2022-10-06T17:44:21.333Z,9.90
2022-10-06T17:46:50.761Z,9.07
2022-10-06T17:49:21.839Z,7.37
2022-10-06T17:51:51.461Z,8.13
2022-10-06T17:54:20.829Z,5.63
2022-10-06T17:56:53.145Z,8.60
2022-10-06T17:59:25.200Z,6.77
2022-10-06T18:01:56.384Z,7.40
2022-10-06T18:04:23.637Z,7.77
2022-10-06T18:06:53.008Z,10.20
2022-10-06T18:09:20.089Z,8.77
2022-10-06T18:11:55.052Z,11.47
2022-10-06T18:14:24.367Z,11.13
2022-10-06T18:16:57.719Z,12.93
2022-10-06T18:19:30.267Z,7.87
2022-10-06T18:22:00.322Z,13.30
2022-10-06T18:24:29.673Z,10.67
2022-10-06T18:26:58.552Z,7.10
2022-10-06T18:29:29.550Z,7.80
2022-10-06T18:32:09.184Z,9.87
2022-10-06T18:37:31.092Z,8.03
2022-10-06T18:39:57.688Z,5.43
2022-10-06T18:42:24.704Z,5.50
2022-10-06T18:45:10.143Z,7.90
2022-10-06T18:47:55.652Z,7.97
2022-10-06T18:50:23.461Z,7.17
2022-10-06T18:52:50.064Z,11.17
2022-10-06T18:55:17.224Z,8.00
2022-10-06T18:57:45.215Z,11.80
2022-10-06T19:00:12.601Z,9.17
2022-10-06T19:02:39.354Z,5.27
2022-10-06T19:05:06.191Z,10.90
2022-10-06T19:07:32.776Z,9.20
2022-10-06T19:09:59.381Z,10.97
2022-10-06T19:12:29.027Z,10.80
2022-10-06T19:14:55.689Z,5.93
2022-10-06T19:17:24.327Z,11.13
2022-10-06T19:19:55.493Z,10.47
2022-10-06T19:22:24.795Z,5.90
2022-10-06T19:24:52.342Z,15.63
2022-10-06T19:27:24.388Z,9.03
2022-10-06T19:29:56.802Z,15.20
2022-10-06T19:32:27.140Z,7.50
2022-10-06T19:34:57.909Z,11.43
2022-10-06T19:37:27.015Z,11.13
2022-10-06T19:39:53.688Z,9.77
2022-10-06T19:42:39.247Z,11.97
2022-10-06T19:45:07.479Z,10.53
2022-10-06T19:47:34.131Z,10.13
2022-10-06T19:50:04.806Z,12.47
2022-10-06T19:52:34.489Z,11.40
2022-10-06T19:55:01.309Z,5.97
2022-10-06T19:57:29.370Z,13.70
2022-10-06T19:59:56.044Z,13.67
2022-10-06T20:02:22.878Z,8.30
2022-10-06T20:04:50.527Z,15.03
2022-10-06T20:07:17.382Z,12.00
2022-10-06T20:09:45.365Z,12.80
2022-10-06T20:12:12.358Z,15.53
2022-10-06T20:14:39.270Z,11.97
2022-10-06T20:17:06.128Z,12.07
2022-10-06T20:19:33.115Z,13.73
2022-10-06T20:22:32.011Z,11.47
2022-10-06T20:24:59.037Z,8.67
2022-10-06T20:27:25.822Z,15.07
2022-10-06T20:29:53.028Z,12.47
2022-10-06T20:32:19.755Z,15.10
2022-10-06T20:34:46.363Z,16.73
2022-10-06T20:37:12.967Z,10.03
2022-10-06T20:39:58.558Z,9.80
2022-10-06T20:42:29.811Z,15.40
2022-10-06T20:44:56.478Z,20.67
2022-10-06T20:47:23.417Z,16.27
2022-10-06T20:49:55.377Z,17.10
2022-10-06T20:52:24.340Z,13.17
2022-10-06T20:54:51.367Z,13.37
2022-10-06T20:57:18.202Z,13.27
2022-10-06T20:59:46.189Z,19.47
2022-10-06T21:02:13.453Z,15.20
2022-10-06T21:04:46.042Z,16.93
2022-10-06T21:07:14.906Z,14.33
2022-10-06T21:09:41.583Z,18.20
2022-10-06T21:12:09.233Z,12.53
2022-10-06T21:14:36.252Z,17.37
2022-10-06T21:17:02.865Z,18.23
2022-10-06T21:19:34.152Z,17.90
2022-10-06T21:22:02.052Z,14.83
2022-10-06T21:24:31.433Z,14.90
2022-10-06T21:27:00.559Z,12.50
2022-10-06T21:29:29.489Z,13.73
2022-10-06T21:31:56.172Z,16.10
2022-10-06T21:34:25.467Z,18.30
2022-10-06T21:36:52.077Z,17.53
2022-10-06T21:39:19.201Z,15.50
2022-10-06T21:41:48.022Z,14.33
2022-10-06T21:44:16.964Z,19.67
2022-10-06T21:46:51.265Z,19.73
2022-10-06T21:49:23.580Z,22.50
2022-10-06T21:51:54.017Z,20.33
2022-10-06T21:54:21.466Z,16.67
2022-10-06T21:56:55.702Z,14.00
2022-10-06T21:59:22.338Z,13.70
2022-10-06T22:01:54.177Z,15.53
2022-10-06T22:04:20.798Z,17.13
2022-10-06T22:06:50.608Z,15.00
2022-10-06T22:09:19.519Z,12.97
2022-10-06T22:11:46.369Z,20.40
2022-10-06T22:14:15.216Z,15.30
2022-10-06T22:16:42.484Z,13.80
2022-10-06T22:19:14.990Z,20.30
2022-10-06T22:21:44.461Z,10.53
2022-10-06T22:24:17.079Z,14.37
2022-10-06T22:26:44.748Z,12.57
2022-10-06T22:29:14.143Z,16.97
2022-10-06T22:31:44.904Z,17.40
2022-10-06T22:34:14.454Z,15.50
2022-10-06T22:36:41.173Z,17.63
2022-10-06T22:39:08.150Z,19.30
2022-10-06T22:41:34.893Z,17.30
2022-10-06T22:44:01.813Z,15.03
2022-10-06T22:46:35.633Z,17.17
2022-10-06T22:49:03.759Z,14.23
2022-10-06T22:51:30.533Z,15.93
2022-10-06T22:54:02.289Z,14.70
2022-10-06T22:56:34.048Z,15.60
2022-10-06T22:59:02.961Z,17.00
2022-10-06T23:01:30.171Z,20.23
2022-10-06T23:03:57.846Z,17.57
2022-10-06T23:06:25.352Z,18.00
2022-10-06T23:08:54.448Z,14.53
2022-10-06T23:11:21.802Z,17.37
2022-10-06T23:13:52.890Z,14.10
2022-10-06T23:16:20.247Z,15.73
2022-10-06T23:18:47.201Z,11.73
2022-10-06T23:21:21.959Z,20.53
2022-10-06T23:23:53.407Z,22.40
2022-10-06T23:26:20.810Z,17.23
2022-10-06T23:28:55.497Z,17.40
2022-10-06T23:31:24.725Z,19.37
2022-10-06T23:33:52.017Z,15.90
2022-10-06T23:36:19.338Z,16.33
2022-10-06T23:38:46.965Z,15.13
2022-10-06T23:41:24.586Z,14.73
2022-10-06T23:43:51.373Z,10.93
2022-10-06T23:46:20.966Z,13.10
2022-10-06T23:48:47.598Z,13.93
2022-10-06T23:51:17.292Z,21.33
2022-10-06T23:53:44.426Z,13.90
2022-10-06T23:56:13.882Z,22.40
2022-10-06T23:58:44.353Z,20.87
